Time;durP1;ratioP1;P1;durP2;ratioP2;P2;SDS_P1;SDS_P2;PMS_P1;PMS_P2;Temp;Humidity;BMP_temperature;BMP_pressure;BME280_temperature;BME280_humidity;BME280_pressure;Samples;Min_cycle;Max_cycle;Signal;HPM_P1;HPM_P2
2022/05/26 03:01:05;;;;;;;0.70;0.50;;;15.90;68.00;;;;;;5892565;23;20498;-68
2022/05/26 03:03:37;;;;;;;0.67;0.50;;;15.80;68.20;;;;;;4974446;28;20430;-68
2022/05/26 03:06:08;;;;;;;0.80;0.60;;;15.80;68.20;;;;;;4974628;28;20426;-68
2022/05/26 03:08:39;;;;;;;0.80;0.60;;;15.80;68.30;;;;;;4974302;28;20426;-68
2022/05/26 03:11:08;;;;;;;0.70;0.50;;;15.80;68.30;;;;;;4973946;28;20896;-68
2022/05/26 03:13:35;;;;;;;0.70;0.50;;;15.80;68.30;;;;;;4975560;28;20450;-66
2022/05/26 03:16:04;;;;;;;0.70;0.50;;;15.80;68.10;;;;;;4974482;28;20485;-68
2022/05/26 03:18:31;;;;;;;0.70;0.60;;;15.80;68.30;;;;;;4974164;28;20446;-67
2022/05/26 03:20:59;;;;;;;0.70;0.60;;;15.80;68.50;;;;;;4974144;28;20915;-68
2022/05/26 03:23:26;;;;;;;0.73;0.73;;;15.80;68.70;;;;;;4974708;28;20536;-67
2022/05/26 03:25:55;;;;;;;0.60;0.50;;;15.70;68.80;;;;;;4973823;28;20450;-68
2022/05/26 03:28:21;;;;;;;0.70;0.60;;;15.80;68.60;;;;;;4974375;28;20453;-67
2022/05/26 03:30:48;;;;;;;0.70;0.60;;;15.70;68.60;;;;;;4973934;28;20540;-68
2022/05/26 03:33:16;;;;;;;0.67;0.50;;;15.70;68.90;;;;;;4974081;28;20442;-68
2022/05/26 03:41:11;;;;;;;0.70;0.60;;;15.60;68.90;;;;;;4974426;28;20452;-67
2022/05/26 03:43:41;;;;;;;0.70;0.50;;;15.70;69.20;;;;;;4974080;28;20504;-69
2022/05/26 03:46:07;;;;;;;0.80;0.60;;;15.70;68.90;;;;;;4973969;28;20504;-69
2022/05/26 03:48:36;;;;;;;0.70;0.60;;;15.70;68.60;;;;;;4973926;28;20457;-70
2022/05/26 03:51:04;;;;;;;0.70;0.50;;;15.60;68.60;;;;;;4974162;28;20489;-68
2022/05/26 03:53:33;;;;;;;0.60;0.50;;;15.60;68.80;;;;;;4973121;28;20458;-67
2022/05/26 03:55:59;;;;;;;0.70;0.60;;;15.60;68.60;;;;;;4973839;28;20458;-68
2022/05/26 03:58:26;;;;;;;0.60;0.50;;;15.60;68.80;;;;;;4973521;28;20505;-68
2022/05/26 04:00:53;;;;;;;0.70;0.50;;;15.60;68.50;;;;;;4973625;28;20470;-69
2022/05/26 04:03:20;;;;;;;0.60;0.50;;;15.70;68.50;;;;;;4973904;28;20902;-70
2022/05/26 04:05:48;;;;;;;0.70;0.60;;;15.60;68.40;;;;;;4973829;28;20827;-70
2022/05/26 04:08:14;;;;;;;0.67;0.50;;;15.70;68.60;;;;;;4973779;28;20866;-70
2022/05/26 04:10:41;;;;;;;0.70;0.60;;;15.80;68.60;;;;;;4973406;28;20867;-70
2022/05/26 04:13:09;;;;;;;0.60;0.50;;;15.80;68.30;;;;;;4973730;28;20993;-68
2022/05/26 04:15:36;;;;;;;0.70;0.50;;;15.80;68.20;;;;;;4973767;28;20488;-68
2022/05/26 04:18:03;;;;;;;0.70;0.60;;;15.80;68.10;;;;;;4974045;28;20449;-68
2022/05/26 04:20:29;;;;;;;0.67;0.60;;;15.80;68.30;;;;;;4973218;28;20853;-68
2022/05/26 04:22:57;;;;;;;0.60;0.50;;;15.80;68.20;;;;;;4973382;28;20941;-68
2022/05/26 04:25:25;;;;;;;0.70;0.50;;;15.90;68.10;;;;;;4973695;28;20521;-69
2022/05/26 04:27:53;;;;;;;0.70;0.50;;;16.00;67.90;;;;;;4973352;28;20457;-70
2022/05/26 04:30:21;;;;;;;0.63;0.50;;;16.00;67.50;;;;;;4973481;28;20488;-70
2022/05/26 04:32:47;;;;;;;0.60;0.50;;;15.90;67.80;;;;;;4973587;28;20482;-70
2022/05/26 04:35:14;;;;;;;0.67;0.50;;;16.00;68.00;;;;;;4973565;28;20497;-70
2022/05/26 04:37:41;;;;;;;0.60;0.50;;;16.20;67.70;;;;;;4973614;28;20457;-69
2022/05/26 04:40:11;;;;;;;0.67;0.50;;;16.30;67.20;;;;;;4973235;28;20508;-70
2022/05/26 04:42:39;;;;;;;0.70;0.50;;;16.40;66.80;;;;;;4973517;28;20470;-70
2022/05/26 04:45:08;;;;;;;0.60;0.50;;;16.50;66.60;;;;;;4973571;28;20538;-70
2022/05/26 04:47:35;;;;;;;0.70;0.60;;;16.60;66.60;;;;;;4973102;28;20986;-70
2022/05/26 04:50:03;;;;;;;0.70;0.60;;;16.60;66.50;;;;;;4973348;28;20520;-70
2022/05/26 04:52:30;;;;;;;0.70;0.60;;;16.80;66.60;;;;;;4973353;28;20528;-70
2022/05/26 04:54:57;;;;;;;0.70;0.50;;;16.90;66.30;;;;;;4973467;28;20446;-70
2022/05/26 04:57:25;;;;;;;0.60;0.50;;;17.00;66.10;;;;;;4974184;28;20781;-70
2022/05/26 04:59:53;;;;;;;0.70;0.53;;;17.10;65.30;;;;;;4973291;28;20473;-69
2022/05/26 05:02:21;;;;;;;0.70;0.50;;;17.10;65.50;;;;;;4972972;28;20478;-70
2022/05/26 05:04:48;;;;;;;0.70;0.60;;;17.10;65.40;;;;;;4976093;28;21011;-70
2022/05/26 05:07:17;;;;;;;0.97;0.60;;;17.00;65.50;;;;;;4976792;28;20442;-70
2022/05/26 05:09:44;;;;;;;0.70;0.60;;;16.90;65.60;;;;;;4976748;28;20445;-70
2022/05/26 05:12:13;;;;;;;0.70;0.60;;;17.00;66.20;;;;;;4976484;28;20493;-70
2022/05/26 05:14:44;;;;;;;0.63;0.50;;;17.00;65.80;;;;;;4976545;28;20497;-67
2022/05/26 05:17:11;;;;;;;0.67;0.50;;;17.10;66.80;;;;;;4976607;28;20454;-67
2022/05/26 05:19:38;;;;;;;0.70;0.50;;;17.30;66.00;;;;;;4976574;28;20516;-67
2022/05/26 05:22:09;;;;;;;0.70;0.50;;;17.40;66.00;;;;;;4975964;28;20968;-68
2022/05/26 05:24:39;;;;;;;0.67;0.50;;;17.30;65.60;;;;;;4977073;28;20434;-67
2022/05/26 05:27:11;;;;;;;0.60;0.50;;;17.00;65.80;;;;;;4976364;28;20852;-67
2022/05/26 05:29:39;;;;;;;0.60;0.53;;;17.10;66.30;;;;;;4976312;28;20442;-67
2022/05/26 05:32:13;;;;;;;1.07;0.80;;;17.30;66.60;;;;;;4976128;28;20489;-68
2022/05/26 05:34:44;;;;;;;0.70;0.70;;;17.40;65.00;;;;;;4976275;28;20438;-67
2022/05/26 05:37:11;;;;;;;0.70;0.50;;;17.60;66.10;;;;;;4976181;28;20517;-68
2022/05/26 05:39:39;;;;;;;0.80;0.60;;;17.40;65.70;;;;;;4975696;28;20945;-68
2022/05/26 05:42:07;;;;;;;0.70;0.60;;;17.60;66.40;;;;;;4976103;28;20470;-67
2022/05/26 05:44:34;;;;;;;0.83;0.60;;;17.70;64.70;;;;;;4976019;28;20862;-68
2022/05/26 05:47:01;;;;;;;0.60;0.50;;;18.00;64.60;;;;;;4976016;28;20525;-67
2022/05/26 05:49:32;;;;;;;0.60;0.50;;;18.30;63.70;;;;;;4975767;28;20477;-69
2022/05/26 05:52:07;;;;;;;0.90;0.60;;;18.30;62.70;;;;;;4975813;28;20485;-70
2022/05/26 05:54:34;;;;;;;0.60;0.50;;;18.30;62.10;;;;;;4976057;28;20441;-70
2022/05/26 05:57:00;;;;;;;0.70;0.60;;;18.50;63.10;;;;;;4975935;28;20450;-69
2022/05/26 05:59:27;;;;;;;0.60;0.50;;;18.80;62.50;;;;;;4975689;28;20959;-70
2022/05/26 06:01:55;;;;;;;0.70;0.60;;;19.00;61.40;;;;;;4975669;28;20490;-71
2022/05/26 06:04:22;;;;;;;0.70;0.50;;;19.10;61.90;;;;;;4975783;28;20545;-70
2022/05/26 06:06:51;;;;;;;0.60;0.50;;;19.20;61.50;;;;;;4975722;28;20541;-70
2022/05/26 06:09:17;;;;;;;0.67;0.50;;;19.20;61.10;;;;;;4975713;28;20520;-70
2022/05/26 06:11:45;;;;;;;0.80;0.50;;;18.80;60.70;;;;;;4975578;28;20581;-70
2022/05/26 06:14:12;;;;;;;0.60;0.50;;;18.50;62.40;;;;;;4975640;28;20442;-70
2022/05/26 06:16:40;;;;;;;0.60;0.50;;;18.40;62.50;;;;;;4974998;28;20492;-70
2022/05/26 06:19:06;;;;;;;0.70;0.60;;;18.50;61.90;;;;;;4975219;28;20470;-69
2022/05/26 06:21:36;;;;;;;0.70;0.60;;;18.30;62.10;;;;;;4975409;28;20536;-70
2022/05/26 06:24:06;;;;;;;0.70;0.60;;;18.50;62.70;;;;;;4975107;28;20449;-70
2022/05/26 06:26:32;;;;;;;0.60;0.50;;;18.60;62.70;;;;;;4975399;28;20476;-70
2022/05/26 06:37:13;;;;;;;0.60;0.57;;;18.50;62.00;;;;;;4975106;28;20829;-69
2022/05/26 06:37:15;;;;;;;0.67;0.57;;;18.50;63.20;;;;;;4975086;28;20454;-70
2022/05/26 06:39:44;;;;;;;0.60;0.50;;;18.50;62.70;;;;;;4975097;28;20500;-69
2022/05/26 06:42:11;;;;;;;0.60;0.60;;;18.70;63.00;;;;;;4974993;28;20908;-70
2022/05/26 06:44:42;;;;;;;0.63;0.60;;;18.80;62.50;;;;;;4975058;28;20450;-70
2022/05/26 06:47:11;;;;;;;0.70;0.50;;;19.00;62.00;;;;;;4975044;28;20462;-70
2022/05/26 06:49:39;;;;;;;0.60;0.50;;;18.90;61.60;;;;;;4974990;28;20512;-71
2022/05/26 06:52:06;;;;;;;0.73;0.60;;;19.10;62.10;;;;;;4974732;28;20862;-70
2022/05/26 06:54:34;;;;;;;0.70;0.60;;;19.30;60.80;;;;;;4974895;28;20828;-70
2022/05/26 06:57:02;;;;;;;0.70;0.60;;;19.40;60.10;;;;;;4974817;28;20454;-70
2022/05/26 06:59:28;;;;;;;1.20;0.50;;;19.40;60.30;;;;;;4974366;28;20509;-69
2022/05/26 07:01:56;;;;;;;0.67;0.50;;;19.50;60.50;;;;;;4974855;28;20528;-70
2022/05/26 07:04:23;;;;;;;0.67;0.60;;;19.40;59.90;;;;;;4974893;28;20450;-70
2022/05/26 07:06:50;;;;;;;0.60;0.50;;;19.30;60.60;;;;;;4974680;28;20450;-69
2022/05/26 07:09:18;;;;;;;1.20;0.60;;;19.40;60.70;;;;;;4974665;28;20538;-70
2022/05/26 07:11:44;;;;;;;0.60;0.50;;;19.50;60.20;;;;;;4974666;28;20498;-70
2022/05/26 07:14:13;;;;;;;0.60;0.50;;;19.50;60.70;;;;;;4974433;28;20544;-69
2022/05/26 07:16:40;;;;;;;0.63;0.50;;;19.70;60.10;;;;;;4974334;28;20454;-70
2022/05/26 07:19:07;;;;;;;0.60;0.50;;;19.70;60.10;;;;;;4974339;28;20445;-69
2022/05/26 07:21:34;;;;;;;0.80;0.53;;;19.70;59.80;;;;;;4974177;28;20872;-70
2022/05/26 07:24:00;;;;;;;0.60;0.50;;;19.90;59.20;;;;;;4974262;28;20541;-70
2022/05/26 07:26:28;;;;;;;1.33;0.60;;;19.90;58.70;;;;;;4974134;28;20505;-70
2022/05/26 07:28:55;;;;;;;0.70;0.60;;;20.10;59.00;;;;;;4973784;28;20454;-70
2022/05/26 07:31:23;;;;;;;0.60;0.50;;;20.10;59.30;;;;;;4973574;28;21020;-68
2022/05/26 07:33:50;;;;;;;0.70;0.60;;;20.20;58.10;;;;;;4973689;28;20450;-67
2022/05/26 07:41:46;;;;;;;0.60;0.50;;;20.00;59.30;;;;;;4974156;28;20441;-68
2022/05/26 07:44:13;;;;;;;0.80;0.50;;;20.00;57.40;;;;;;4974267;28;20450;-68
2022/05/26 07:46:41;;;;;;;0.60;0.50;;;20.00;58.10;;;;;;4973915;28;20456;-68
2022/05/26 07:49:09;;;;;;;0.60;0.50;;;19.90;58.10;;;;;;4974000;28;20524;-69
2022/05/26 07:51:36;;;;;;;0.80;0.60;;;20.00;58.10;;;;;;4973960;28;20497;-70
2022/05/26 07:54:02;;;;;;;0.60;0.50;;;20.00;58.30;;;;;;4974698;28;20458;-69
2022/05/26 07:56:33;;;;;;;0.60;0.50;;;20.00;58.20;;;;;;4975000;28;20449;-69
2022/05/26 07:58:59;;;;;;;0.73;0.50;;;19.80;58.20;;;;;;4974567;28;20858;-69
2022/05/26 08:01:26;;;;;;;0.60;0.50;;;19.70;58.50;;;;;;4974686;28;21040;-69
2022/05/26 08:03:55;;;;;;;0.70;0.60;;;19.90;58.00;;;;;;4974808;28;20465;-68
2022/05/26 08:06:22;;;;;;;0.93;0.53;;;20.00;58.30;;;;;;4974626;28;20445;-69
2022/05/26 08:08:49;;;;;;;0.60;0.50;;;20.20;59.60;;;;;;4974991;28;20489;-69
2022/05/26 08:11:16;;;;;;;0.60;0.50;;;20.50;57.40;;;;;;4975143;28;20538;-69
2022/05/26 08:13:43;;;;;;;0.70;0.60;;;20.60;57.10;;;;;;4974795;28;20453;-69
2022/05/26 08:16:10;;;;;;;0.60;0.50;;;20.50;57.20;;;;;;4974757;28;20450;-69
2022/05/26 08:18:36;;;;;;;1.47;0.50;;;20.60;57.80;;;;;;4974728;28;20450;-69
2022/05/26 08:21:07;;;;;;;0.70;0.60;;;20.80;57.30;;;;;;4974727;28;20465;-69
2022/05/26 08:23:34;;;;;;;0.60;0.60;;;20.80;57.80;;;;;;4974600;28;20438;-69
2022/05/26 08:26:01;;;;;;;0.60;0.50;;;20.80;58.00;;;;;;4974512;28;20965;-69
2022/05/26 08:28:27;;;;;;;0.60;0.50;;;20.60;57.30;;;;;;4974761;28;20823;-69
2022/05/26 08:30:54;;;;;;;0.67;0.50;;;20.60;57.00;;;;;;4974208;28;20822;-69
2022/05/26 08:33:21;;;;;;;0.60;0.50;;;20.50;58.00;;;;;;4974334;28;20493;-69
2022/05/26 08:35:48;;;;;;;0.70;0.60;;;20.30;57.80;;;;;;4974443;28;20460;-70
2022/05/26 08:38:16;;;;;;;0.67;0.60;;;20.30;57.40;;;;;;4975192;28;20461;-70
2022/05/26 08:40:48;;;;;;;1.00;0.50;;;20.20;57.90;;;;;;4978165;28;20568;-69
2022/05/26 08:43:19;;;;;;;0.70;0.60;;;20.40;57.90;;;;;;4978674;28;20430;-70
2022/05/26 08:45:49;;;;;;;0.60;0.50;;;20.40;57.10;;;;;;4978024;28;20537;-70
2022/05/26 08:48:33;;;;;;;0.70;0.60;;;20.40;58.30;;;;;;4977957;28;20508;-70
2022/05/26 08:50:59;;;;;;;0.70;0.60;;;20.50;57.10;;;;;;4977838;28;20581;-69
2022/05/26 08:53:39;;;;;;;0.60;0.50;;;20.40;57.80;;;;;;4978250;28;20486;-70
2022/05/26 08:56:11;;;;;;;0.70;0.50;;;20.60;57.90;;;;;;4977552;28;20806;-70
2022/05/26 08:58:43;;;;;;;0.70;0.53;;;20.70;57.40;;;;;;4978138;28;20529;-69
2022/05/26 09:01:12;;;;;;;0.60;0.50;;;20.80;58.50;;;;;;4977855;28;20486;-69
2022/05/26 09:03:39;;;;;;;0.70;0.50;;;20.80;57.70;;;;;;4977773;28;20863;-69
2022/05/26 09:06:08;;;;;;;0.70;0.50;;;21.00;58.20;;;;;;4977650;28;20446;-69
2022/05/26 09:14:23;;;;;;;0.80;0.60;;;20.80;56.90;;;;;;4977985;28;20441;-69
2022/05/26 09:16:50;;;;;;;0.70;0.60;;;20.90;56.20;;;;;;4978047;28;20438;-69
2022/05/26 09:19:19;;;;;;;0.60;0.50;;;20.80;57.00;;;;;;4977317;28;20498;-69
2022/05/26 09:21:47;;;;;;;0.70;0.60;;;20.60;57.00;;;;;;4977549;28;20509;-69
2022/05/26 09:24:24;;;;;;;0.60;0.50;;;20.80;58.40;;;;;;4977889;28;20870;-69
2022/05/26 09:26:55;;;;;;;0.70;0.60;;;21.00;56.70;;;;;;4976601;28;20910;-69
2022/05/26 09:29:26;;;;;;;0.67;0.60;;;21.00;56.10;;;;;;4976615;28;20497;-69
2022/05/26 09:31:53;;;;;;;0.60;0.50;;;20.90;55.90;;;;;;4976241;28;20512;-69
2022/05/26 09:34:22;;;;;;;0.60;0.50;;;21.00;56.60;;;;;;4976212;28;20524;-68
2022/05/26 09:36:50;;;;;;;0.60;0.50;;;21.10;56.40;;;;;;4975778;28;20825;-69
2022/05/26 09:39:25;;;;;;;0.60;0.50;;;21.10;55.70;;;;;;4976078;28;20456;-69
2022/05/26 09:41:54;;;;;;;0.60;0.50;;;21.00;56.30;;;;;;4976030;28;20465;-69
2022/05/26 09:44:32;;;;;;;0.70;0.50;;;21.00;56.60;;;;;;4975962;28;20450;-69
2022/05/26 09:47:03;;;;;;;0.70;0.60;;;21.00;56.30;;;;;;4975995;28;20438;-69
2022/05/26 09:49:39;;;;;;;0.67;0.50;;;20.90;56.50;;;;;;4975297;28;20469;-68
2022/05/26 09:52:13;;;;;;;0.60;0.50;;;20.80;57.80;;;;;;4975354;28;20568;-68
2022/05/26 09:54:41;;;;;;;0.60;0.50;;;20.70;56.90;;;;;;4976414;28;20768;-68
2022/05/26 09:57:20;;;;;;;0.60;0.50;;;20.60;57.90;;;;;;4975781;28;20453;-69
2022/05/26 09:59:48;;;;;;;0.70;0.60;;;20.60;58.30;;;;;;4975619;28;20430;-69
2022/05/26 10:02:19;;;;;;;0.80;0.60;;;20.60;58.50;;;;;;4975679;28;20484;-69
2022/05/26 10:05:02;;;;;;;0.60;0.50;;;20.70;59.50;;;;;;4976603;28;20434;-69
2022/05/26 10:07:45;;;;;;;0.60;0.50;;;20.80;58.70;;;;;;4976547;28;20952;-69
2022/05/26 10:10:20;;;;;;;0.60;0.50;;;20.70;58.60;;;;;;4976173;28;20851;-68
2022/05/26 10:12:55;;;;;;;0.60;0.50;;;20.70;58.90;;;;;;4976425;28;20497;-70
2022/05/26 10:15:32;;;;;;;0.70;0.60;;;20.50;58.30;;;;;;4976544;28;20514;-69
2022/05/26 10:18:20;;;;;;;0.60;0.50;;;20.50;58.10;;;;;;4976205;28;20785;-69
2022/05/26 10:20:56;;;;;;;0.60;0.50;;;20.40;58.50;;;;;;4976063;28;20883;-68
2022/05/26 10:23:50;;;;;;;1.33;0.70;;;20.40;59.00;;;;;;4976389;28;20426;-69
2022/05/26 10:26:29;;;;;;;0.70;0.50;;;20.20;59.30;;;;;;4975269;28;20937;-69
2022/05/26 10:29:31;;;;;;;0.70;0.60;;;20.10;58.90;;;;;;4975028;28;20902;-69
2022/05/26 10:32:10;;;;;;;1.20;0.60;;;20.00;59.50;;;;;;4976048;28;20529;-69
2022/05/26 10:34:53;;;;;;;0.70;0.50;;;20.20;60.00;;;;;;4975814;28;20489;-69
2022/05/26 10:37:29;;;;;;;0.70;0.60;;;20.30;59.50;;;;;;4975679;28;20949;-69
2022/05/26 10:40:21;;;;;;;0.70;0.50;;;20.30;58.50;;;;;;4975825;28;20426;-69
2022/05/26 10:42:55;;;;;;;0.70;0.50;;;20.40;58.60;;;;;;4976009;28;20501;-69
2022/05/26 10:45:27;;;;;;;0.80;0.60;;;20.60;59.40;;;;;;4975958;28;20806;-69
2022/05/26 10:47:59;;;;;;;0.70;0.50;;;20.60;58.60;;;;;;4975961;28;20449;-69
2022/05/26 10:50:30;;;;;;;0.70;0.60;;;20.60;58.30;;;;;;4975661;28;20573;-69
2022/05/26 10:53:04;;;;;;;0.80;0.57;;;20.40;58.70;;;;;;4975612;28;20496;-69
2022/05/26 10:55:39;;;;;;;0.60;0.50;;;20.50;59.10;;;;;;4975231;28;20438;-69
2022/05/26 10:58:14;;;;;;;0.70;0.60;;;20.50;58.60;;;;;;4975517;28;20476;-69
2022/05/26 11:00:41;;;;;;;0.60;0.50;;;20.50;59.20;;;;;;4975153;28;20433;-69
2022/05/26 11:03:13;;;;;;;0.70;0.50;;;20.40;58.80;;;;;;4975216;28;20434;-69
2022/05/26 11:05:45;;;;;;;0.60;0.50;;;20.30;59.80;;;;;;4975468;28;20443;-69
2022/05/26 11:08:31;;;;;;;0.60;0.50;;;20.40;59.60;;;;;;4975477;28;20529;-69
2022/05/26 11:11:03;;;;;;;0.63;0.60;;;20.40;59.70;;;;;;4975111;28;20478;-69
2022/05/26 11:13:41;;;;;;;0.60;0.50;;;20.40;59.50;;;;;;4975048;28;20492;-69
2022/05/26 11:19:09;;;;;;;0.70;0.50;;;20.10;59.80;;;;;;4975846;28;20406;-70
2022/05/26 11:21:36;;;;;;;0.60;0.60;;;20.10;59.80;;;;;;4975079;28;20577;-70
2022/05/26 11:24:03;;;;;;;0.60;0.50;;;20.20;60.50;;;;;;4975298;28;20449;-71
2022/05/26 11:26:38;;;;;;;0.60;0.50;;;20.30;61.30;;;;;;4974931;28;20457;-70
2022/05/26 11:29:12;;;;;;;0.60;0.50;;;20.20;60.50;;;;;;4974668;28;20441;-72
2022/05/26 11:37:28;;;;;;;0.60;0.50;;;20.10;59.90;;;;;;4977067;28;20538;-70
2022/05/26 11:39:58;;;;;;;0.70;0.60;;;20.10;59.80;;;;;;4976405;28;20473;-70
2022/05/26 11:42:30;;;;;;;0.60;0.50;;;20.00;60.10;;;;;;4974698;28;20809;-70
2022/05/26 11:45:16;;;;;;;0.60;0.50;;;19.80;61.10;;;;;;4973966;28;20430;-70
2022/05/26 11:47:53;;;;;;;0.70;0.60;;;20.00;60.80;;;;;;4974084;28;20770;-69
2022/05/26 11:50:30;;;;;;;0.80;0.70;;;20.00;60.10;;;;;;4973920;28;20430;-69
2022/05/26 11:53:38;;;;;;;0.60;0.50;;;20.20;60.60;;;;;;4973810;28;20474;-70
2022/05/26 11:56:40;;;;;;;0.60;0.50;;;20.20;60.30;;;;;;4968365;28;20462;-70
2022/05/26 11:59:46;;;;;;;0.70;0.50;;;20.30;60.30;;;;;;4973813;28;20516;-70
2022/05/26 12:02:30;;;;;;;0.60;0.50;;;20.50;59.30;;;;;;4973485;28;20486;-70
2022/05/26 12:04:56;;;;;;;0.60;0.50;;;20.70;59.20;;;;;;4971828;28;20454;-70
2022/05/26 12:07:37;;;;;;;0.60;0.50;;;20.90;58.70;;;;;;4974510;28;20481;-69
2022/05/26 12:10:20;;;;;;;1.37;0.90;;;20.70;58.30;;;;;;4973592;28;20461;-69
2022/05/26 12:12:49;;;;;;;1.77;0.60;;;20.80;58.40;;;;;;4973380;28;21007;-69
2022/05/26 12:15:20;;;;;;;0.67;0.50;;;20.60;58.40;;;;;;4977287;28;21000;-70
2022/05/26 12:17:49;;;;;;;0.80;0.60;;;20.60;58.90;;;;;;4977581;28;20599;-69
2022/05/26 12:20:33;;;;;;;0.60;0.50;;;20.70;59.40;;;;;;4977623;28;20476;-70
2022/05/26 12:23:26;;;;;;;0.73;0.50;;;20.80;59.10;;;;;;4977442;28;20448;-69
2022/05/26 12:26:25;;;;;;;0.60;0.60;;;20.80;59.20;;;;;;4977236;28;20454;-69
2022/05/26 12:28:53;;;;;;;0.80;0.67;;;20.70;59.50;;;;;;4977580;28;20426;-69
2022/05/26 12:31:20;;;;;;;0.70;0.50;;;20.80;59.20;;;;;;4977128;28;21000;-70
2022/05/26 12:34:15;;;;;;;0.70;0.60;;;20.80;59.60;;;;;;4977284;28;20536;-70
2022/05/26 12:37:03;;;;;;;0.60;0.60;;;20.90;59.10;;;;;;4977441;28;20444;-69
2022/05/26 12:40:07;;;;;;;0.60;0.50;;;21.00;58.20;;;;;;4977299;28;20477;-69
2022/05/26 12:42:47;;;;;;;0.60;0.50;;;21.00;58.00;;;;;;4977276;28;20520;-70
2022/05/26 12:45:24;;;;;;;0.67;0.60;;;21.20;57.90;;;;;;4977577;28;20425;-70
2022/05/26 12:48:18;;;;;;;0.70;0.60;;;21.30;57.40;;;;;;4977724;28;20434;-69
2022/05/26 12:50:45;;;;;;;0.80;0.50;;;21.30;57.20;;;;;;4977000;28;20466;-70
2022/05/26 12:53:17;;;;;;;0.60;0.50;;;21.30;58.40;;;;;;4976945;28;20544;-69
2022/05/26 12:55:49;;;;;;;0.60;0.50;;;21.50;57.10;;;;;;4977108;28;20441;-69
2022/05/26 12:58:19;;;;;;;0.70;0.60;;;21.50;57.40;;;;;;4977087;28;20462;-69
2022/05/26 13:00:49;;;;;;;0.80;0.50;;;21.80;57.50;;;;;;4976914;28;20481;-70
2022/05/26 13:03:26;;;;;;;0.70;0.50;;;22.00;56.00;;;;;;4977148;28;20430;-69
2022/05/26 13:05:59;;;;;;;0.60;0.57;;;22.20;55.80;;;;;;4976884;28;20437;-70
2022/05/26 13:08:29;;;;;;;0.60;0.50;;;22.40;55.80;;;;;;4976812;28;20434;-69
2022/05/26 13:10:59;;;;;;;1.23;0.60;;;22.40;55.50;;;;;;4976347;28;20969;-69
2022/05/26 13:13:34;;;;;;;0.70;0.60;;;22.40;56.20;;;;;;4976571;28;20524;-69
2022/05/26 13:16:24;;;;;;;0.70;0.50;;;22.60;54.50;;;;;;4976379;28;20953;-70
2022/05/26 13:18:51;;;;;;;0.60;0.50;;;22.60;55.60;;;;;;4976616;28;20488;-70
2022/05/26 13:21:19;;;;;;;0.70;0.60;;;22.60;54.50;;;;;;4976504;28;20469;-71
2022/05/26 13:23:45;;;;;;;0.70;0.60;;;22.60;54.50;;;;;;4976418;28;20445;-70
2022/05/26 13:26:13;;;;;;;0.60;0.50;;;22.50;54.80;;;;;;4976365;28;20446;-69
2022/05/26 13:28:45;;;;;;;0.93;0.60;;;22.10;55.50;;;;;;4976768;28;20453;-69
2022/05/26 13:34:03;;;;;;;0.70;0.50;;;21.90;56.70;;;;;;4976301;28;20465;-69
2022/05/26 13:36:34;;;;;;;0.60;0.50;;;21.90;56.00;;;;;;4976400;28;20796;-70
2022/05/26 13:39:05;;;;;;;0.67;0.50;;;21.80;56.90;;;;;;4976330;28;20438;-69
2022/05/26 13:41:33;;;;;;;0.60;0.50;;;21.80;57.00;;;;;;4976628;28;20525;-70
2022/05/26 13:44:04;;;;;;;0.60;0.57;;;21.80;56.80;;;;;;4976655;28;20505;-70
2022/05/26 13:46:33;;;;;;;0.70;0.50;;;21.70;57.40;;;;;;4977052;28;20426;-69
2022/05/26 13:49:14;;;;;;;0.60;0.50;;;21.70;57.80;;;;;;4976518;28;20446;-69
2022/05/26 13:51:44;;;;;;;0.70;0.60;;;21.90;58.20;;;;;;4976356;28;20564;-69
2022/05/26 13:54:26;;;;;;;0.70;0.57;;;22.10;57.50;;;;;;4975801;28;20565;-69
2022/05/26 13:56:54;;;;;;;0.70;0.60;;;22.00;58.40;;;;;;4975826;28;20426;-69
2022/05/26 13:59:21;;;;;;;0.70;0.70;;;22.10;57.00;;;;;;4976186;28;20500;-70
2022/05/26 14:01:51;;;;;;;0.60;0.50;;;22.00;57.30;;;;;;4975816;28;20490;-70
2022/05/26 14:04:30;;;;;;;0.70;0.50;;;22.00;56.20;;;;;;4976702;28;20427;-70
2022/05/26 14:06:58;;;;;;;0.60;0.50;;;22.00;55.50;;;;;;4975688;28;20445;-70
2022/05/26 14:09:30;;;;;;;0.60;0.50;;;22.00;56.10;;;;;;4975535;28;20458;-69
2022/05/26 14:12:03;;;;;;;0.80;0.60;;;22.00;57.20;;;;;;4975479;28;20469;-70
2022/05/26 14:14:32;;;;;;;0.70;0.57;;;22.00;56.50;;;;;;4975648;28;20884;-70
2022/05/26 14:17:01;;;;;;;0.70;0.50;;;22.10;56.00;;;;;;4975620;28;20486;-69
2022/05/26 14:19:33;;;;;;;0.60;0.50;;;22.20;56.40;;;;;;4975446;28;20446;-69
2022/05/26 14:22:01;;;;;;;1.27;0.50;;;22.20;56.20;;;;;;4975318;28;20474;-70
2022/05/26 14:24:32;;;;;;;0.80;0.60;;;22.20;56.20;;;;;;4975065;28;20453;-69
2022/05/26 14:27:14;;;;;;;0.70;0.53;;;22.20;56.60;;;;;;4975248;28;20517;-70
2022/05/26 14:29:42;;;;;;;0.60;0.50;;;22.10;56.90;;;;;;4975671;28;20449;-70
2022/05/26 14:32:15;;;;;;;0.70;0.53;;;22.10;57.30;;;;;;4974931;28;20542;-70
2022/05/26 14:34:45;;;;;;;0.90;0.60;;;22.10;58.20;;;;;;4975210;28;20474;-70
2022/05/26 14:37:14;;;;;;;0.77;0.50;;;22.00;57.00;;;;;;4974689;28;20501;-70
2022/05/26 14:39:41;;;;;;;0.60;0.50;;;22.10;57.00;;;;;;4975087;28;20449;-69
2022/05/26 14:42:12;;;;;;;0.70;0.60;;;21.90;56.70;;;;;;4974523;28;20981;-69
2022/05/26 14:44:40;;;;;;;0.60;0.50;;;21.90;57.00;;;;;;4975021;28;20517;-70
2022/05/26 14:47:06;;;;;;;0.90;0.60;;;22.00;57.30;;;;;;4974562;28;20530;-69
2022/05/26 14:49:34;;;;;;;0.70;0.60;;;22.10;57.40;;;;;;4974990;28;20446;-70
2022/05/26 14:52:03;;;;;;;0.60;0.50;;;22.10;56.90;;;;;;4974734;28;20557;-69
2022/05/26 14:57:18;;;;;;;0.70;0.60;;;22.20;57.10;;;;;;4974831;28;20901;-69
2022/05/26 14:59:45;;;;;;;0.60;0.50;;;22.20;57.20;;;;;;4974639;28;20453;-70
2022/05/26 15:02:12;;;;;;;0.70;0.60;;;22.50;57.40;;;;;;4974174;28;20498;-69
2022/05/26 15:04:39;;;;;;;0.70;0.60;;;22.70;56.60;;;;;;4974525;28;20466;-69
2022/05/26 15:07:08;;;;;;;0.60;0.50;;;23.00;55.50;;;;;;4974272;28;20517;-69
2022/05/26 15:09:35;;;;;;;0.70;0.50;;;22.90;55.80;;;;;;4974489;28;20797;-69
2022/05/26 15:12:04;;;;;;;0.70;0.57;;;23.10;54.90;;;;;;4974729;28;20466;-70
2022/05/26 15:14:32;;;;;;;0.70;0.60;;;23.40;54.70;;;;;;4975790;28;20486;-69
2022/05/26 15:17:05;;;;;;;0.63;0.50;;;23.60;54.40;;;;;;4974379;28;20454;-70
2022/05/26 15:19:39;;;;;;;0.63;0.50;;;23.70;53.90;;;;;;4974100;28;20529;-69
2022/05/26 15:22:08;;;;;;;0.60;0.50;;;23.60;52.70;;;;;;4974360;28;20469;-69
2022/05/26 15:24:35;;;;;;;0.60;0.50;;;23.30;53.40;;;;;;4973834;28;20934;-69
2022/05/26 15:27:02;;;;;;;0.67;0.50;;;23.20;54.20;;;;;;4974049;28;20450;-69
2022/05/26 15:29:29;;;;;;;1.57;0.80;;;22.90;54.40;;;;;;4974768;28;20847;-69
2022/05/26 15:31:56;;;;;;;0.60;0.57;;;22.90;54.90;;;;;;4974137;28;20470;-70
2022/05/26 15:34:23;;;;;;;0.60;0.50;;;22.80;54.40;;;;;;4973584;28;20480;-69
2022/05/26 15:36:52;;;;;;;0.63;0.53;;;22.70;56.00;;;;;;4974032;28;20454;-69
2022/05/26 15:39:20;;;;;;;0.60;0.50;;;22.80;55.90;;;;;;4973985;28;20509;-69
2022/05/26 15:41:48;;;;;;;0.60;0.50;;;22.90;54.80;;;;;;4973928;28;20572;-70
2022/05/26 15:44:15;;;;;;;0.70;0.50;;;22.80;55.80;;;;;;4973548;28;20777;-70
2022/05/26 15:46:47;;;;;;;0.60;0.50;;;22.40;56.10;;;;;;4974665;28;20481;-69
2022/05/26 15:49:15;;;;;;;0.70;0.50;;;22.10;56.50;;;;;;4973117;28;20452;-69
2022/05/26 15:51:42;;;;;;;0.67;0.50;;;21.90;58.00;;;;;;4973852;28;20528;-70
2022/05/26 15:54:11;;;;;;;0.63;0.50;;;21.70;57.30;;;;;;4973587;28;20482;-69
2022/05/26 15:56:41;;;;;;;0.70;0.60;;;21.50;58.50;;;;;;4973675;28;20509;-69
2022/05/26 15:59:13;;;;;;;0.70;0.60;;;21.70;58.60;;;;;;4973725;28;20533;-70
2022/05/26 16:01:40;;;;;;;0.60;0.60;;;22.00;56.90;;;;;;4973455;28;20943;-69
2022/05/26 16:04:06;;;;;;;0.70;0.63;;;22.20;56.20;;;;;;4973739;28;20450;-69
2022/05/26 16:06:33;;;;;;;0.60;0.50;;;22.20;55.50;;;;;;4973695;28;20450;-69
2022/05/26 16:09:00;;;;;;;0.60;0.50;;;21.80;55.90;;;;;;4973645;28;20446;-69
2022/05/26 16:11:27;;;;;;;0.60;0.50;;;21.80;55.70;;;;;;4973603;28;20481;-70
2022/05/26 16:13:57;;;;;;;0.70;0.60;;;21.80;56.40;;;;;;4973532;28;20544;-70
2022/05/26 16:16:24;;;;;;;0.60;0.50;;;21.80;55.80;;;;;;4974326;28;20434;-69
2022/05/26 16:18:51;;;;;;;0.80;0.70;;;21.80;56.00;;;;;;4973868;28;20450;-69
2022/05/26 16:21:18;;;;;;;0.77;0.50;;;21.90;55.60;;;;;;4973501;28;20478;-69
2022/05/26 16:23:49;;;;;;;0.60;0.50;;;21.70;55.90;;;;;;4973495;28;20501;-69
2022/05/26 16:26:17;;;;;;;0.70;0.50;;;21.50;56.60;;;;;;4973513;28;20438;-69
2022/05/26 16:28:44;;;;;;;0.87;0.50;;;21.40;56.90;;;;;;4973402;28;20449;-68
2022/05/26 16:31:12;;;;;;;0.60;0.50;;;21.50;57.40;;;;;;4973403;28;20474;-68
2022/05/26 16:33:38;;;;;;;0.70;0.50;;;21.70;57.60;;;;;;4973273;28;20446;-69
2022/05/26 16:38:51;;;;;;;0.60;0.50;;;22.00;57.60;;;;;;4973326;28;20466;-69
2022/05/26 16:41:18;;;;;;;0.70;0.53;;;22.00;56.80;;;;;;4973377;28;20561;-69
2022/05/26 16:43:44;;;;;;;0.60;0.50;;;22.00;57.30;;;;;;4973445;28;20454;-69
2022/05/26 16:46:13;;;;;;;1.47;0.60;;;22.00;57.50;;;;;;4973358;28;20453;-69